Time;durP1;ratioP1;P1;durP2;ratioP2;P2;SDS_P1;SDS_P2;PMS_P1;PMS_P2;Temp;Humidity;BMP_temperature;BMP_pressure;BME280_temperature;BME280_humidity;BME280_pressure;Samples;Min_cycle;Max_cycle;Signal;HPM_P1;HPM_P2
2021/12/10 00:01:37;;;;;;;;;;;4.00;94.40;;;;;;5090481;28;19979;-70
2021/12/10 00:04:03;;;;;;;;;;;4.00;94.40;;;;;;5090802;28;19916;-70
2021/12/10 00:06:31;;;;;;;;;;;4.00;94.50;;;;;;5090259;28;19908;-70
2021/12/10 00:09:01;;;;;;;;;;;4.00;94.50;;;;;;5089398;28;19958;-70
2021/12/10 00:11:34;;;;;;;;;;;4.00;94.50;;;;;;5090319;28;19920;-70
2021/12/10 00:14:00;;;;;;;;;;;4.00;94.50;;;;;;5089377;28;19915;-69
2021/12/10 00:16:26;;;;;;;;;;;3.90;94.50;;;;;;5090187;28;19995;-69
2021/12/10 00:18:57;;;;;;;;;;;4.00;94.50;;;;;;5090375;28;19908;-69
2021/12/10 00:21:24;;;;;;;;;;;3.90;94.50;;;;;;5090581;28;20380;-70
2021/12/10 00:23:50;;;;;;;;;;;3.90;94.40;;;;;;5089932;28;19943;-69
2021/12/10 00:26:17;;;;;;;;;;;3.90;94.50;;;;;;5090076;28;19983;-70
2021/12/10 00:28:43;;;;;;;;;;;3.90;94.50;;;;;;5090087;28;19918;-69
2021/12/10 00:31:29;;;;;;;;;;;3.90;94.50;;;;;;5089884;28;19920;-70
2021/12/10 00:34:05;;;;;;;;;;;3.90;94.50;;;;;;5090442;28;19915;-70
2021/12/10 00:36:33;;;;;;;;;;;3.90;94.50;;;;;;5089723;28;19951;-69
2021/12/10 00:39:01;;;;;;;;;;;3.90;94.50;;;;;;5088860;28;19961;-69
2021/12/10 00:41:27;;;;;;;;;;;3.90;94.50;;;;;;5090246;28;20347;-70
2021/12/10 00:43:53;;;;;;;;;;;3.90;94.40;;;;;;5089482;28;19926;-69
2021/12/10 00:46:19;;;;;;;;;;;3.90;94.40;;;;;;5104040;28;19995;-69
2021/12/10 00:48:44;;;;;;;;;;;3.90;94.50;;;;;;5091079;28;19916;-69
2021/12/10 00:51:11;;;;;;;;;;;3.90;94.50;;;;;;5110425;28;19955;-70
2021/12/10 00:53:36;;;;;;;;;;;3.90;94.50;;;;;;5098109;28;20002;-70
2021/12/10 00:56:03;;;;;;;;;;;3.90;94.40;;;;;;5093736;28;20421;-69
2021/12/10 00:58:29;;;;;;;;;;;3.90;94.40;;;;;;5103200;28;19961;-70
2021/12/10 01:00:57;;;;;;;;;;;3.90;94.40;;;;;;5109959;28;19912;-70
2021/12/10 01:03:24;;;;;;;;;;;3.90;94.40;;;;;;5106407;28;19937;-70
2021/12/10 01:05:52;;;;;;;;;;;3.90;94.40;;;;;;5096634;28;19923;-69
2021/12/10 01:08:18;;;;;;;;;;;3.90;94.40;;;;;;5091698;28;19953;-69
2021/12/10 01:10:50;;;;;;;;;;;3.90;94.40;;;;;;5089539;28;19916;-69
2021/12/10 01:13:18;;;;;;;;;;;3.90;94.30;;;;;;5089338;28;19919;-69
2021/12/10 01:24:15;;;;;;;;;;;3.90;94.40;;;;;;5089041;28;19923;-70
2021/12/10 01:29:16;;;;;;;;;;;3.90;94.30;;;;;;5088283;28;19908;-69
2021/12/10 01:31:44;;;;;;;;;;;3.90;94.30;;;;;;5089459;28;19912;-69
2021/12/10 01:34:11;;;;;;;;;;;3.90;94.30;;;;;;5089150;28;20294;-70
2021/12/10 01:36:38;;;;;;;;;;;3.90;94.30;;;;;;5088114;28;19915;-69
2021/12/10 01:39:05;;;;;;;;;;;3.90;94.30;;;;;;5089222;28;19978;-69
2021/12/10 01:41:35;;;;;;;;;;;3.90;94.30;;;;;;5089178;28;19912;-69
2021/12/10 01:44:04;;;;;;;;;;;3.90;94.30;;;;;;5089532;28;19923;-69
2021/12/10 01:46:31;;;;;;;;;;;3.90;94.40;;;;;;5089056;28;19915;-70
2021/12/10 01:48:59;;;;;;;;;;;3.90;94.40;;;;;;5089672;28;20003;-70
2021/12/10 01:51:27;;;;;;;;;;;3.90;94.30;;;;;;5089012;28;19994;-69
2021/12/10 01:53:55;;;;;;;;;;;3.90;94.30;;;;;;5088761;28;19912;-70
2021/12/10 01:56:26;;;;;;;;;;;3.90;94.40;;;;;;5089175;28;19919;-70
2021/12/10 01:58:52;;;;;;;;;;;3.90;94.40;;;;;;5086828;28;20265;-69
2021/12/10 02:01:31;;;;;;;;;;;3.90;94.40;;;;;;5089084;28;19912;-69
2021/12/10 02:03:58;;;;;;;;;;;3.90;94.30;;;;;;5088865;28;19908;-69
2021/12/10 02:06:23;;;;;;;;;;;3.90;94.30;;;;;;5088835;28;19947;-70
2021/12/10 02:08:49;;;;;;;;;;;3.90;94.40;;;;;;5089049;28;19951;-70
2021/12/10 02:11:15;;;;;;;;;;;3.90;94.40;;;;;;5088454;28;19920;-69
2021/12/10 02:13:41;;;;;;;;;;;3.90;94.30;;;;;;5087960;28;19962;-70
2021/12/10 02:16:07;;;;;;;;;;;3.90;94.40;;;;;;5089619;28;19912;-70
2021/12/10 02:18:32;;;;;;;;;;;3.90;94.40;;;;;;5090046;28;19995;-70
2021/12/10 02:21:01;;;;;;;;;;;3.90;94.40;;;;;;5086196;28;20338;-69
2021/12/10 02:23:27;;;;;;;;;;;3.90;94.40;;;;;;5092151;28;20019;-70
2021/12/10 02:25:55;;;;;;;;;;;3.90;94.40;;;;;;5087774;28;19944;-69
2021/12/10 02:28:21;;;;;;;;;;;3.80;94.40;;;;;;5084602;28;20001;-69
2021/12/10 02:30:47;;;;;;;;;;;3.80;94.40;;;;;;5090086;28;19919;-70
2021/12/10 02:33:13;;;;;;;;;;;3.80;94.40;;;;;;5087486;28;19912;-69
2021/12/10 02:35:39;;;;;;;;;;;3.80;94.40;;;;;;5116973;27;20006;-69
2021/12/10 02:38:05;;;;;;;;;;;3.80;94.40;;;;;;5086082;28;20017;-69
2021/12/10 02:40:31;;;;;;;;;;;3.80;94.40;;;;;;5090357;28;19916;-70
2021/12/10 02:42:58;;;;;;;;;;;3.80;94.40;;;;;;5086511;28;19908;-69
2021/12/10 02:45:24;;;;;;;;;;;3.80;94.40;;;;;;5091536;28;19916;-69
2021/12/10 02:47:51;;;;;;;;;;;3.80;94.40;;;;;;5090854;28;19991;-70
2021/12/10 02:50:18;;;;;;;;;;;3.80;94.40;;;;;;5090304;28;19948;-70
2021/12/10 02:52:44;;;;;;;;;;;3.80;94.40;;;;;;5092272;28;19908;-69
2021/12/10 02:55:10;;;;;;;;;;;3.80;94.40;;;;;;5091540;28;19915;-70
2021/12/10 02:57:37;;;;;;;;;;;3.80;94.40;;;;;;5091763;28;19991;-69
2021/12/10 03:00:08;;;;;;;;;;;3.80;94.40;;;;;;5091880;28;19908;-69
2021/12/10 03:02:34;;;;;;;;;;;3.80;94.40;;;;;;5090497;28;19960;-70
2021/12/10 03:05:00;;;;;;;;;;;3.80;94.40;;;;;;5091608;28;19912;-70
2021/12/10 03:07:25;;;;;;;;;;;3.70;94.40;;;;;;5091197;28;20053;-70
2021/12/10 03:09:52;;;;;;;;;;;3.70;94.40;;;;;;5091105;28;19951;-70
2021/12/10 03:12:18;;;;;;;;;;;3.70;94.40;;;;;;5089083;28;19912;-69
2021/12/10 03:14:45;;;;;;;;;;;3.70;94.40;;;;;;5090294;28;19916;-70
2021/12/10 03:17:12;;;;;;;;;;;3.70;94.40;;;;;;5089381;28;19908;-70
2021/12/10 03:19:38;;;;;;;;;;;3.70;94.40;;;;;;5090363;28;20365;-70
2021/12/10 03:22:06;;;;;;;;;;;3.70;94.40;;;;;;5090456;28;19920;-69
2021/12/10 03:24:31;;;;;;;;;;;3.70;94.40;;;;;;5090975;28;20463;-69
2021/12/10 03:26:58;;;;;;;;;;;3.70;94.40;;;;;;5090534;28;19915;-69
2021/12/10 03:29:25;;;;;;;;;;;3.70;94.40;;;;;;5091315;28;19915;-69
2021/12/10 03:31:52;;;;;;;;;;;3.70;94.50;;;;;;5091378;28;19961;-69
2021/12/10 03:34:17;;;;;;;;;;;3.70;94.40;;;;;;5106481;28;19912;-69
2021/12/10 03:36:46;;;;;;;;;;;3.80;94.20;;;;;;5090145;28;20425;-69
2021/12/10 03:39:13;;;;;;;;;;;3.80;94.10;;;;;;5089889;28;19933;-69
2021/12/10 03:41:39;;;;;;;;;;;3.80;94.10;;;;;;5090078;28;19912;-69
2021/12/10 03:44:04;;;;;;;;;;;3.80;94.10;;;;;;5091072;28;19926;-69
2021/12/10 03:46:30;;;;;;;;;;;3.80;94.10;;;;;;5090273;28;20412;-69
2021/12/10 03:48:55;;;;;;;;;;;3.80;94.00;;;;;;5090923;28;19918;-69
2021/12/10 03:51:23;;;;;;;;;;;3.80;94.10;;;;;;5089956;28;19916;-69
2021/12/10 03:53:49;;;;;;;;;;;3.80;94.00;;;;;;5096791;28;19916;-70
2021/12/10 03:56:16;;;;;;;;;;;3.80;94.00;;;;;;5089200;28;19957;-69
2021/12/10 03:58:42;;;;;;;;;;;3.80;94.00;;;;;;5090690;28;19908;-70
2021/12/10 04:01:09;;;;;;;;;;;3.80;94.00;;;;;;5090792;28;19909;-69
2021/12/10 04:03:35;;;;;;;;;;;3.80;94.00;;;;;;5090660;28;20426;-70
2021/12/10 04:06:01;;;;;;;;;;;3.80;94.00;;;;;;5089892;28;19919;-69
2021/12/10 04:08:27;;;;;;;;;;;3.70;94.00;;;;;;5090463;28;19912;-69
2021/12/10 04:10:53;;;;;;;;;;;3.70;93.90;;;;;;5089259;28;20672;-70
2021/12/10 04:13:20;;;;;;;;;;;3.70;93.90;;;;;;5090655;28;19919;-69
2021/12/10 04:15:45;;;;;;;;;;;3.70;93.90;;;;;;5089788;28;19912;-70
2021/12/10 04:18:12;;;;;;;;;;;3.70;93.90;;;;;;5090614;28;19915;-70
2021/12/10 04:20:38;;;;;;;;;;;3.70;93.90;;;;;;5090436;28;20549;-69
2021/12/10 04:23:04;;;;;;;;;;;3.70;93.90;;;;;;5089861;28;20256;-69
2021/12/10 04:25:30;;;;;;;;;;;3.70;93.90;;;;;;5089932;28;19913;-69
2021/12/10 04:27:58;;;;;;;;;;;3.70;93.90;;;;;;5088898;28;19908;-69
2021/12/10 04:30:24;;;;;;;;;;;3.70;93.90;;;;;;5090436;28;20393;-70
2021/12/10 04:32:50;;;;;;;;;;;3.70;93.90;;;;;;5090147;28;19957;-70
2021/12/10 04:35:18;;;;;;;;;;;3.70;93.90;;;;;;5089845;28;19919;-69
2021/12/10 04:37:44;;;;;;;;;;;3.70;93.90;;;;;;5079471;28;19979;-69
2021/12/10 04:40:12;;;;;;;;;;;3.70;93.90;;;;;;5083639;28;20460;-70
2021/12/10 04:42:37;;;;;;;;;;;3.70;93.90;;;;;;5088538;28;20010;-69
2021/12/10 04:45:06;;;;;;;;;;;3.70;93.90;;;;;;5089682;28;20003;-69
2021/12/10 04:47:33;;;;;;;;;;;3.70;93.90;;;;;;5090142;28;19916;-69
2021/12/10 04:49:59;;;;;;;;;;;3.70;93.80;;;;;;5088873;28;20372;-70
2021/12/10 04:52:25;;;;;;;;;;;3.70;93.90;;;;;;5089650;28;19916;-69
2021/12/10 04:54:50;;;;;;;;;;;3.70;93.80;;;;;;5089656;28;20113;-69
2021/12/10 04:57:16;;;;;;;;;;;3.70;93.80;;;;;;5089588;28;19912;-69
2021/12/10 04:59:42;;;;;;;;;;;3.70;93.90;;;;;;5088132;28;19951;-69
2021/12/10 05:02:11;;;;;;;;;;;3.60;93.80;;;;;;5089937;28;20392;-70
2021/12/10 05:04:36;;;;;;;;;;;3.70;93.80;;;;;;5089603;28;20395;-70
2021/12/10 05:07:04;;;;;;;;;;;3.70;93.80;;;;;;5089801;28;20002;-70
2021/12/10 05:09:30;;;;;;;;;;;3.70;93.80;;;;;;5089787;28;20361;-70
2021/12/10 05:11:56;;;;;;;;;;;3.70;93.80;;;;;;5089024;28;19965;-69
2021/12/10 05:14:23;;;;;;;;;;;3.70;93.80;;;;;;5089548;28;19919;-69
2021/12/10 05:16:49;;;;;;;;;;;3.70;93.80;;;;;;5089134;28;19916;-70
2021/12/10 05:19:16;;;;;;;;;;;3.70;93.80;;;;;;5088180;28;19916;-69
2021/12/10 05:21:45;;;;;;;;;;;3.60;93.80;;;;;;5089485;28;20241;-69
2021/12/10 05:24:10;;;;;;;;;;;3.60;93.80;;;;;;5079234;28;20376;-69
2021/12/10 05:26:36;;;;;;;;;;;3.60;93.80;;;;;;5083967;28;19908;-69
2021/12/10 05:29:04;;;;;;;;;;;3.60;93.80;;;;;;5087844;28;19959;-70
2021/12/10 05:31:30;;;;;;;;;;;3.60;93.80;;;;;;5089414;28;19916;-69
2021/12/10 05:33:55;;;;;;;;;;;3.60;93.70;;;;;;5089708;28;19915;-69
2021/12/10 05:36:21;;;;;;;;;;;3.60;93.80;;;;;;5088999;28;19915;-70
2021/12/10 05:38:46;;;;;;;;;;;3.60;93.70;;;;;;5089331;28;20405;-69
2021/12/10 05:41:13;;;;;;;;;;;3.60;93.70;;;;;;5088897;28;20524;-69
2021/12/10 05:43:39;;;;;;;;;;;3.60;93.70;;;;;;5089398;28;19923;-69
2021/12/10 05:46:05;;;;;;;;;;;3.60;93.70;;;;;;5088834;28;19919;-69
2021/12/10 05:48:31;;;;;;;;;;;3.60;93.70;;;;;;5087956;28;19912;-70
2021/12/10 05:50:57;;;;;;;;;;;3.60;93.70;;;;;;5088933;28;19918;-69
2021/12/10 05:53:22;;;;;;;;;;;3.50;93.70;;;;;;5091305;28;20032;-69
2021/12/10 05:55:48;;;;;;;;;;;3.50;93.70;;;;;;5092501;28;19921;-69
2021/12/10 05:58:14;;;;;;;;;;;3.60;93.70;;;;;;5093201;28;20007;-69
2021/12/10 06:00:42;;;;;;;;;;;3.50;93.70;;;;;;5092909;28;20281;-69
2021/12/10 06:03:08;;;;;;;;;;;3.50;93.60;;;;;;5092947;28;20340;-70
2021/12/10 06:05:35;;;;;;;;;;;3.50;93.70;;;;;;5093065;28;19912;-69
2021/12/10 06:08:02;;;;;;;;;;;3.50;93.70;;;;;;5092746;28;19994;-69
2021/12/10 06:10:28;;;;;;;;;;;3.50;93.70;;;;;;5092889;28;20714;-70
2021/12/10 06:12:54;;;;;;;;;;;3.60;93.70;;;;;;5092639;28;20310;-69
2021/12/10 06:15:21;;;;;;;;;;;3.50;93.60;;;;;;5092692;28;19909;-69
2021/12/10 06:17:48;;;;;;;;;;;3.50;93.60;;;;;;5092609;28;20281;-70
2021/12/10 06:20:15;;;;;;;;;;;3.50;93.60;;;;;;5072554;28;19991;-69
2021/12/10 06:22:41;;;;;;;;;;;3.50;93.60;;;;;;5073930;28;20393;-69
2021/12/10 06:25:07;;;;;;;;;;;3.50;93.60;;;;;;5092201;28;19944;-70
2021/12/10 06:27:32;;;;;;;;;;;3.50;93.60;;;;;;5092372;28;19943;-70
2021/12/10 06:29:58;;;;;;;;;;;3.50;93.60;;;;;;5092552;28;19951;-69
2021/12/10 06:32:25;;;;;;;;;;;3.60;93.60;;;;;;5092399;28;19916;-69
2021/12/10 06:34:50;;;;;;;;;;;3.60;93.50;;;;;;5090808;28;19912;-69
2021/12/10 06:37:16;;;;;;;;;;;3.50;93.50;;;;;;5091982;28;19912;-69
2021/12/10 06:39:41;;;;;;;;;;;3.50;93.60;;;;;;5092518;28;19913;-70
2021/12/10 06:42:07;;;;;;;;;;;3.50;93.90;;;;;;5092258;28;20003;-69
2021/12/10 06:44:32;;;;;;;;;;;3.50;93.50;;;;;;5091085;28;19923;-69
2021/12/10 06:46:58;;;;;;;;;;;3.60;93.60;;;;;;5091148;28;20437;-69
2021/12/10 06:49:23;;;;;;;;;;;3.50;93.60;;;;;;5090822;28;20033;-69
2021/12/10 06:51:49;;;;;;;;;;;3.60;93.60;;;;;;5090757;28;20053;-69
2021/12/10 06:54:15;;;;;;;;;;;3.50;93.60;;;;;;5090677;28;19912;-70
2021/12/10 06:56:41;;;;;;;;;;;3.50;93.50;;;;;;5091659;28;19908;-69
2021/12/10 06:59:07;;;;;;;;;;;3.50;93.50;;;;;;5091944;28;19912;-69
2021/12/10 07:01:35;;;;;;;;;;;3.60;93.60;;;;;;5091400;28;19940;-70
2021/12/10 07:04:02;;;;;;;;;;;3.50;93.50;;;;;;5091717;28;19919;-69
2021/12/10 07:06:28;;;;;;;;;;;3.50;93.50;;;;;;5091243;28;19984;-69
2021/12/10 07:08:55;;;;;;;;;;;3.60;93.60;;;;;;5091563;28;19967;-69
2021/12/10 07:11:21;;;;;;;;;;;3.50;93.50;;;;;;5090307;28;19951;-69
2021/12/10 07:13:49;;;;;;;;;;;3.50;93.50;;;;;;5091563;28;19963;-70
2021/12/10 07:16:15;;;;;;;;;;;3.50;93.50;;;;;;5091679;28;19908;-69
2021/12/10 07:18:41;;;;;;;;;;;3.50;93.50;;;;;;5091404;28;19916;-69
2021/12/10 07:21:07;;;;;;;;;;;3.50;93.50;;;;;;5091407;28;19961;-69
2021/12/10 07:23:33;;;;;;;;;;;3.60;93.50;;;;;;5091437;28;19908;-69
2021/12/10 07:25:58;;;;;;;;;;;3.50;93.50;;;;;;5090852;28;19908;-70
2021/12/10 07:28:24;;;;;;;;;;;3.50;93.50;;;;;;5091351;28;20002;-69
2021/12/10 07:30:50;;;;;;;;;;;3.50;93.50;;;;;;5091141;28;20012;-70
2021/12/10 07:33:16;;;;;;;;;;;3.50;93.50;;;;;;5091264;28;20076;-69
2021/12/10 07:35:42;;;;;;;;;;;3.50;93.50;;;;;;5089417;28;20025;-69
2021/12/10 07:38:09;;;;;;;;;;;3.50;93.50;;;;;;5091042;28;19912;-69
2021/12/10 07:40:36;;;;;;;;;;;3.50;93.40;;;;;;5089732;28;19912;-69
2021/12/10 07:43:01;;;;;;;;;;;3.50;93.50;;;;;;5090385;28;19919;-70
2021/12/10 07:45:27;;;;;;;;;;;3.50;93.50;;;;;;5088101;28;19999;-69
2021/12/10 07:47:53;;;;;;;;;;;3.60;93.40;;;;;;5090060;28;20581;-69
2021/12/10 07:50:27;;;;;;;;;;;3.50;93.30;;;;;;5090898;28;19954;-69
2021/12/10 07:52:56;;;;;;;;;;;3.50;93.40;;;;;;5090262;28;19923;-69
2021/12/10 07:55:27;;;;;;;;;;;3.60;93.50;;;;;;5090555;28;19939;-69
2021/12/10 07:57:53;;;;;;;;;;;3.50;93.40;;;;;;5089302;28;19961;-69
2021/12/10 08:00:20;;;;;;;;;;;3.50;93.40;;;;;;5090185;28;19907;-69
2021/12/10 08:02:46;;;;;;;;;;;3.50;93.50;;;;;;5088886;28;20355;-69
2021/12/10 08:05:12;;;;;;;;;;;3.50;93.40;;;;;;5089162;28;19912;-69
2021/12/10 08:07:38;;;;;;;;;;;3.60;93.40;;;;;;5090266;28;19919;-70
2021/12/10 08:10:04;;;;;;;;;;;3.60;93.40;;;;;;5090782;28;19912;-69
2021/12/10 08:12:29;;;;;;;;;;;3.50;93.40;;;;;;5090538;28;19916;-69
2021/12/10 08:14:55;;;;;;;;;;;3.50;93.40;;;;;;5089360;28;20384;-69
2021/12/10 08:17:21;;;;;;;;;;;3.50;93.40;;;;;;5089424;28;20341;-69
2021/12/10 08:19:48;;;;;;;;;;;3.60;93.30;;;;;;5090189;28;19912;-70
2021/12/10 08:22:14;;;;;;;;;;;3.60;93.40;;;;;;5088615;28;19908;-69
2021/12/10 08:24:41;;;;;;;;;;;3.60;93.40;;;;;;5089296;28;20514;-70
2021/12/10 08:27:07;;;;;;;;;;;3.60;93.40;;;;;;5089650;28;19919;-69
2021/12/10 08:29:32;;;;;;;;;;;3.60;93.40;;;;;;5089567;28;20436;-69
2021/12/10 08:31:58;;;;;;;;;;;3.60;93.40;;;;;;5089512;28;19916;-69
2021/12/10 08:34:23;;;;;;;;;;;3.60;93.50;;;;;;5090197;28;19908;-69
2021/12/10 08:36:49;;;;;;;;;;;3.60;93.30;;;;;;5089913;28;20330;-69
2021/12/10 08:39:15;;;;;;;;;;;3.60;93.40;;;;;;5089681;28;19912;-70
2021/12/10 08:41:41;;;;;;;;;;;3.60;93.50;;;;;;5089859;28;19908;-70
2021/12/10 08:44:07;;;;;;;;;;;3.60;93.40;;;;;;5089848;28;19916;-69
2021/12/10 08:46:33;;;;;;;;;;;3.60;93.40;;;;;;5089576;28;19908;-69
2021/12/10 08:48:59;;;;;;;;;;;3.60;93.30;;;;;;5090232;28;19908;-70
2021/12/10 08:51:29;;;;;;;;;;;3.60;93.40;;;;;;5089945;28;20007;-70
2021/12/10 08:53:55;;;;;;;;;;;3.60;93.40;;;;;;5090223;28;20384;-69
2021/12/10 08:56:21;;;;;;;;;;;3.60;93.40;;;;;;5089369;28;19916;-70
2021/12/10 08:58:47;;;;;;;;;;;3.60;93.30;;;;;;5089860;28;19916;-69
2021/12/10 09:01:15;;;;;;;;;;;3.60;93.30;;;;;;5089324;28;19914;-70
2021/12/10 09:03:41;;;;;;;;;;;3.60;93.40;;;;;;5089836;28;20357;-69
2021/12/10 09:06:07;;;;;;;;;;;3.60;93.30;;;;;;5089685;28;19959;-70
2021/12/10 09:08:33;;;;;;;;;;;3.60;93.40;;;;;;5089537;28;19940;-69
2021/12/10 09:10:59;;;;;;;;;;;3.60;93.40;;;;;;5089466;28;19958;-70
2021/12/10 09:13:25;;;;;;;;;;;3.60;93.50;;;;;;5089421;28;19913;-70
2021/12/10 09:15:53;;;;;;;;;;;3.60;93.50;;;;;;5088993;28;19966;-70
2021/12/10 09:18:20;;;;;;;;;;;3.60;93.50;;;;;;5089566;28;19908;-70
2021/12/10 09:20:47;;;;;;;;;;;3.70;93.40;;;;;;5087751;28;19955;-70
2021/12/10 09:23:14;;;;;;;;;;;3.60;93.40;;;;;;5089505;28;19958;-70
2021/12/10 09:25:41;;;;;;;;;;;3.60;93.40;;;;;;5090904;28;19912;-69
2021/12/10 09:28:07;;;;;;;;;;;3.70;93.30;;;;;;5093614;28;19948;-70
2021/12/10 09:30:33;;;;;;;;;;;3.70;93.40;;;;;;5093073;28;20368;-70
2021/12/10 09:32:59;;;;;;;;;;;3.70;93.40;;;;;;5093413;28;19912;-70
2021/12/10 09:35:26;;;;;;;;;;;3.70;93.30;;;;;;5093491;28;19987;-69
2021/12/10 09:37:52;;;;;;;;;;;3.60;93.30;;;;;;5093306;28;19919;-69
2021/12/10 09:40:19;;;;;;;;;;;3.70;93.70;;;;;;5093575;28;19908;-70
2021/12/10 09:42:45;;;;;;;;;;;3.70;93.40;;;;;;5093147;28;20421;-70
2021/12/10 09:45:13;;;;;;;;;;;3.70;93.30;;;;;;5091783;28;19916;-70
2021/12/10 09:47:38;;;;;;;;;;;3.70;93.30;;;;;;5092849;28;20249;-70
2021/12/10 09:50:05;;;;;;;;;;;3.70;93.30;;;;;;5092828;28;19918;-70
2021/12/10 09:52:31;;;;;;;;;;;3.70;93.40;;;;;;5092696;28;20527;-69
2021/12/10 09:55:10;;;;;;;;;;;3.70;93.40;;;;;;5072598;28;19919;-70
2021/12/10 09:57:36;;;;;;;;;;;3.70;93.40;;;;;;5088558;28;19919;-70
2021/12/10 10:00:06;;;;;;;;;;;3.70;93.30;;;;;;5093297;28;19912;-70
2021/12/10 10:02:32;;;;;;;;;;;3.70;93.30;;;;;;5092743;28;19931;-70
2021/12/10 10:04:58;;;;;;;;;;;3.70;93.30;;;;;;5092204;28;20377;-70
2021/12/10 10:07:25;;;;;;;;;;;3.70;93.30;;;;;;5092296;28;19908;-70
2021/12/10 10:09:52;;;;;;;;;;;3.80;93.30;;;;;;5092105;28;19919;-70
2021/12/10 10:12:23;;;;;;;;;;;3.80;93.30;;;;;;5090795;28;19955;-69
2021/12/10 10:14:49;;;;;;;;;;;3.80;93.30;;;;;;5090131;28;19908;-70
2021/12/10 10:17:16;;;;;;;;;;;3.80;93.30;;;;;;5092302;28;19920;-69
2021/12/10 10:19:41;;;;;;;;;;;3.80;93.30;;;;;;5092083;28;20284;-70
2021/12/10 10:22:09;;;;;;;;;;;3.80;93.30;;;;;;5092377;28;20007;-70
2021/12/10 10:24:36;;;;;;;;;;;3.80;93.20;;;;;;5091435;28;19999;-70
2021/12/10 10:27:07;;;;;;;;;;;3.80;93.30;;;;;;5092536;28;19924;-70
2021/12/10 10:29:35;;;;;;;;;;;3.80;93.20;;;;;;5092311;28;19939;-70
2021/12/10 10:32:09;;;;;;;;;;;3.90;93.30;;;;;;5092139;28;19912;-70
2021/12/10 10:34:37;;;;;;;;;;;3.90;93.20;;;;;;5092435;28;19912;-70
2021/12/10 10:37:03;;;;;;;;;;;3.90;93.20;;;;;;5105967;28;19944;-70
2021/12/10 10:39:33;;;;;;;;;;;3.90;93.20;;;;;;5092623;28;20445;-70
2021/12/10 10:41:59;;;;;;;;;;;4.00;93.20;;;;;;5092219;28;20520;-70
2021/12/10 10:44:25;;;;;;;;;;;4.00;93.20;;;;;;5091970;28;19939;-70
2021/12/10 10:46:52;;;;;;;;;;;4.00;93.20;;;;;;5091906;28;19908;-70
2021/12/10 10:49:40;;;;;;;;;;;4.00;93.10;;;;;;5091928;28;19939;-70
2021/12/10 10:52:28;;;;;;;;;;;4.10;93.20;;;;;;5092172;28;19916;-70
2021/12/10 10:54:55;;;;;;;;;;;4.00;93.10;;;;;;5086170;28;20471;-70
2021/12/10 10:57:25;;;;;;;;;;;4.10;93.00;;;;;;5092106;28;19999;-70
2021/12/10 10:59:57;;;;;;;;;;;4.10;93.00;;;;;;5090799;28;20555;-70
2021/12/10 11:02:25;;;;;;;;;;;4.10;93.10;;;;;;5091920;28;20000;-70
2021/12/10 11:04:52;;;;;;;;;;;4.10;93.00;;;;;;5090553;28;19908;-70
2021/12/10 11:07:22;;;;;;;;;;;4.10;93.10;;;;;;5091624;28;19908;-70
2021/12/10 11:09:48;;;;;;;;;;;4.10;93.00;;;;;;5091671;28;19912;-70
2021/12/10 11:12:26;;;;;;;;;;;4.20;92.90;;;;;;5090133;28;19923;-70
2021/12/10 11:14:53;;;;;;;;;;;4.20;93.00;;;;;;5090981;28;19919;-70
2021/12/10 11:17:27;;;;;;;;;;;4.30;92.90;;;;;;5090102;28;19915;-70
2021/12/10 11:19:54;;;;;;;;;;;4.30;92.90;;;;;;5090173;28;19968;-70
2021/12/10 11:22:21;;;;;;;;;;;4.30;92.90;;;;;;5090629;28;19908;-70
2021/12/10 11:24:51;;;;;;;;;;;4.30;92.90;;;;;;5091044;28;19909;-70
2021/12/10 11:27:17;;;;;;;;;;;4.40;92.90;;;;;;5091136;28;20003;-70
2021/12/10 11:29:48;;;;;;;;;;;4.40;92.80;;;;;;5091512;28;20022;-70
2021/12/10 11:32:26;;;;;;;;;;;4.40;92.70;;;;;;5090799;28;19912;-70
2021/12/10 11:35:00;;;;;;;;;;;4.50;92.70;;;;;;5089637;28;20319;-70
2021/12/10 11:37:38;;;;;;;;;;;4.60;92.60;;;;;;5090411;28;19911;-70
2021/12/10 11:40:06;;;;;;;;;;;4.60;92.60;;;;;;5091259;28;19908;-70
2021/12/10 11:42:38;;;;;;;;;;;4.60;92.50;;;;;;5090712;28;20065;-70
2021/12/10 11:45:16;;;;;;;;;;;4.60;92.50;;;;;;5090492;28;20231;-70
2021/12/10 11:47:43;;;;;;;;;;;4.70;92.60;;;;;;5070767;28;19954;-70
2021/12/10 11:50:16;;;;;;;;;;;4.70;92.60;;;;;;5070698;28;19912;-70
2021/12/10 11:52:42;;;;;;;;;;;4.70;92.50;;;;;;5072205;28;19913;-70
2021/12/10 11:55:09;;;;;;;;;;;4.70;92.50;;;;;;5090582;28;19908;-70
2021/12/10 11:57:37;;;;;;;;;;;4.70;92.50;;;;;;5091031;28;19939;-70
2021/12/10 12:00:11;;;;;;;;;;;4.80;92.50;;;;;;5089940;28;21318;-70
2021/12/10 12:02:46;;;;;;;;;;;4.80;92.50;;;;;;5070401;28;19916;-70
2021/12/10 12:05:13;;;;;;;;;;;4.90;92.40;;;;;;5070361;28;19916;-70
2021/12/10 12:07:40;;;;;;;;;;;4.90;92.30;;;;;;5070161;28;20376;-70
2021/12/10 12:10:19;;;;;;;;;;;4.90;92.30;;;;;;5070660;28;19912;-70
2021/12/10 12:12:54;;;;;;;;;;;5.00;92.20;;;;;;5085493;28;19912;-70
2021/12/10 12:15:27;;;;;;;;;;;5.00;92.30;;;;;;5070035;28;19908;-70
2021/12/10 12:18:03;;;;;;;;;;;5.00;92.20;;;;;;5084153;28;20121;-70
2021/12/10 12:20:49;;;;;;;;;;;5.00;92.20;;;;;;5090316;28;19948;-70
2021/12/10 12:26:26;;;;;;;;;;;5.10;92.20;;;;;;5088806;28;19915;-70
2021/12/10 12:28:56;;;;;;;;;;;5.10;92.20;;;;;;5090082;28;19908;-70
2021/12/10 12:31:29;;;;;;;;;;;5.10;92.20;;;;;;5090065;28;19947;-70
2021/12/10 12:33:58;;;;;;;;;;;5.10;92.10;;;;;;5105744;28;20355;-70
2021/12/10 12:36:25;;;;;;;;;;;5.10;92.10;;;;;;5089998;28;19919;-70
2021/12/10 12:38:51;;;;;;;;;;;5.10;92.10;;;;;;5090056;28;19971;-70
2021/12/10 12:41:20;;;;;;;;;;;5.20;92.20;;;;;;5088948;28;19908;-70
2021/12/10 12:43:46;;;;;;;;;;;5.20;92.10;;;;;;5088658;28;19969;-70
2021/12/10 12:46:12;;;;;;;;;;;5.20;92.10;;;;;;5089814;28;20262;-70
2021/12/10 12:48:52;;;;;;;;;;;5.20;92.10;;;;;;5089964;28;19908;-70
2021/12/10 12:51:20;;;;;;;;;;;5.20;92.20;;;;;;5088439;28;19965;-70
2021/12/10 12:53:47;;;;;;;;;;;5.20;92.20;;;;;;5089897;28;19959;-70
2021/12/10 12:56:14;;;;;;;;;;;5.20;92.20;;;;;;5104856;28;19909;-70
2021/12/10 12:58:50;;;;;;;;;;;5.20;92.30;;;;;;5089831;28;20376;-70
2021/12/10 13:01:30;;;;;;;;;;;5.20;92.40;;;;;;5088924;28;19916;-70
2021/12/10 13:04:02;;;;;;;;;;;5.20;92.40;;;;;;5089781;28;19995;-70
2021/12/10 13:06:30;;;;;;;;;;;5.20;92.50;;;;;;5104724;28;19922;-70
2021/12/10 13:09:11;;;;;;;;;;;5.20;92.50;;;;;;5089517;28;19961;-70
2021/12/10 13:11:56;;;;;;;;;;;5.20;92.50;;;;;;5089554;28;19912;-70
2021/12/10 13:14:25;;;;;;;;;;;5.20;92.50;;;;;;5089276;28;20519;-70
2021/12/10 13:17:09;;;;;;;;;;;5.20;92.50;;;;;;5089589;28;19994;-70
2021/12/10 13:19:34;;;;;;;;;;;5.20;92.60;;;;;;5088122;28;19915;-70
2021/12/10 13:22:04;;;;;;;;;;;5.20;92.60;;;;;;5089858;28;19908;-70
2021/12/10 13:24:30;;;;;;;;;;;5.20;92.60;;;;;;5089224;28;19965;-70
2021/12/10 13:26:57;;;;;;;;;;;5.20;92.60;;;;;;5088728;28;19912;-70
2021/12/10 13:29:23;;;;;;;;;;;5.20;92.70;;;;;;5088764;28;19914;-70
2021/12/10 13:31:49;;;;;;;;;;;5.10;92.70;;;;;;5088310;28;20242;-70
2021/12/10 13:34:15;;;;;;;;;;;5.10;92.70;;;;;;5087374;28;19941;-70
2021/12/10 13:36:40;;;;;;;;;;;5.20;92.30;;;;;;5086369;28;19916;-70
2021/12/10 13:39:08;;;;;;;;;;;5.20;92.70;;;;;;5087648;28;19908;-70
2021/12/10 13:41:34;;;;;;;;;;;5.20;92.30;;;;;;5088252;28;19943;-70
2021/12/10 13:44:19;;;;;;;;;;;5.10;92.80;;;;;;5086522;28;20541;-70
2021/12/10 13:46:48;;;;;;;;;;;5.20;92.80;;;;;;5086745;28;20437;-70
2021/12/10 13:49:14;;;;;;;;;;;5.10;92.80;;;;;;5087662;28;19908;-70
2021/12/10 13:51:45;;;;;;;;;;;5.10;92.70;;;;;;5087093;28;19958;-70
2021/12/10 13:54:14;;;;;;;;;;;5.20;92.80;;;;;;5088056;28;20107;-70
2021/12/10 13:56:46;;;;;;;;;;;5.20;92.80;;;;;;5086717;28;19916;-70
2021/12/10 13:59:12;;;;;;;;;;;5.10;92.80;;;;;;5088267;28;19908;-70
2021/12/10 14:01:37;;;;;;;;;;;5.10;92.80;;;;;;5087824;28;19909;-70
2021/12/10 14:04:16;;;;;;;;;;;5.10;92.80;;;;;;5088421;28;20273;-70
2021/12/10 14:06:45;;;;;;;;;;;5.10;92.70;;;;;;5086680;28;20357;-70
2021/12/10 14:09:11;;;;;;;;;;;5.10;92.80;;;;;;5088211;28;19912;-70
2021/12/10 14:11:52;;;;;;;;;;;5.10;92.80;;;;;;5089794;28;19999;-70
2021/12/10 14:14:18;;;;;;;;;;;5.10;92.60;;;;;;5091560;28;19928;-70
2021/12/10 14:16:47;;;;;;;;;;;5.10;92.70;;;;;;5091874;28;20349;-70
2021/12/10 14:19:31;;;;;;;;;;;5.10;92.80;;;;;;5090498;28;19930;-70
2021/12/10 14:21:57;;;;;;;;;;;5.10;92.80;;;;;;5091940;28;19912;-70
2021/12/10 14:24:33;;;;;;;;;;;5.10;92.80;;;;;;5091803;28;19990;-70
2021/12/10 14:27:08;;;;;;;;;;;5.10;92.80;;;;;;5091459;28;19991;-70
2021/12/10 14:29:33;;;;;;;;;;;5.10;92.80;;;;;;5091777;28;20420;-70
2021/12/10 14:31:59;;;;;;;;;;;5.10;92.80;;;;;;5092368;28;19999;-70
2021/12/10 14:34:25;;;;;;;;;;;5.10;92.80;;;;;;5092072;28;19912;-70
2021/12/10 14:37:03;;;;;;;;;;;5.10;92.80;;;;;;5090620;28;19908;-70
2021/12/10 14:39:29;;;;;;;;;;;5.00;92.80;;;;;;5084456;28;20007;-70
2021/12/10 14:41:55;;;;;;;;;;;5.10;92.80;;;;;;5085444;28;19915;-70
2021/12/10 14:44:24;;;;;;;;;;;5.00;92.80;;;;;;5086232;28;19916;-70
2021/12/10 14:46:52;;;;;;;;;;;5.00;92.80;;;;;;5092086;28;19999;-70
2021/12/10 14:49:25;;;;;;;;;;;5.00;92.70;;;;;;5092231;28;19909;-70